Time;durP1;ratioP1;P1;durP2;ratioP2;P2;SDS_P1;SDS_P2;PMS_P1;PMS_P2;Temp;Humidity;BMP_temperature;BMP_pressure;BME280_temperature;BME280_humidity;BME280_pressure;Samples;Min_cycle;Max_cycle;Signal;HPM_P1;HPM_P2
2022/04/05 00:00:33;;;;;;;2.10;2.00;;;7.20;75.30;;;;;;5002405;28;20204;-78
2022/04/05 00:02:59;;;;;;;1.80;1.70;;;7.20;76.10;;;;;;5000805;28;20182;-78
2022/04/05 00:05:24;;;;;;;5.43;2.20;;;7.20;76.30;;;;;;5002809;28;20674;-78
2022/04/05 00:07:50;;;;;;;1.93;1.77;;;7.20;76.80;;;;;;5003999;28;20722;-78
2022/04/05 00:10:16;;;;;;;4.93;2.00;;;7.10;76.30;;;;;;5002272;28;20172;-78
2022/04/05 00:12:42;;;;;;;1.73;1.70;;;7.10;78.40;;;;;;5002594;28;20562;-78
2022/04/05 00:15:09;;;;;;;2.37;2.17;;;7.10;78.50;;;;;;5010193;28;20199;-78
2022/04/05 00:17:36;;;;;;;2.50;2.30;;;7.00;79.00;;;;;;5016790;28;20190;-77
2022/04/05 00:20:03;;;;;;;2.50;2.27;;;7.00;78.10;;;;;;5017830;28;20193;-77
2022/04/05 00:22:29;;;;;;;2.07;1.87;;;6.90;77.90;;;;;;5019730;28;20241;-76
2022/04/05 00:24:55;;;;;;;2.40;2.20;;;6.90;77.90;;;;;;5018735;28;20209;-76
2022/04/05 00:27:20;;;;;;;2.60;2.50;;;6.80;79.00;;;;;;5009636;28;20551;-76
2022/04/05 00:29:46;;;;;;;3.07;2.57;;;6.80;79.30;;;;;;5009231;28;20185;-76
2022/04/05 00:32:12;;;;;;;5.23;2.90;;;6.80;79.30;;;;;;5009321;28;20246;-75
2022/04/05 00:34:39;;;;;;;3.07;2.80;;;6.80;79.70;;;;;;5006743;28;20185;-76
2022/04/05 00:37:05;;;;;;;3.20;2.90;;;6.70;80.10;;;;;;5005966;28;20227;-73
2022/04/05 00:39:30;;;;;;;2.87;2.67;;;6.70;79.50;;;;;;5003296;28;20230;-73
2022/04/05 00:41:57;;;;;;;3.07;2.57;;;6.70;78.70;;;;;;5002444;28;20189;-74
2022/04/05 00:44:23;;;;;;;2.90;2.70;;;6.60;78.50;;;;;;5003673;28;20193;-75
2022/04/05 00:46:51;;;;;;;2.23;2.13;;;6.60;78.90;;;;;;5000502;28;20300;-74
2022/04/05 00:49:27;;;;;;;2.60;2.40;;;6.60;79.20;;;;;;5000366;28;20192;-74
2022/04/05 00:51:52;;;;;;;2.93;2.63;;;6.60;79.20;;;;;;4995762;28;20183;-74
2022/04/05 00:54:21;;;;;;;4.03;2.50;;;6.60;79.40;;;;;;5005032;28;20189;-74
2022/04/05 00:56:49;;;;;;;3.27;3.10;;;6.60;79.20;;;;;;5000380;28;20178;-73
2022/04/05 00:59:16;;;;;;;2.43;2.20;;;6.60;79.40;;;;;;5002308;28;20596;-73
2022/04/05 01:01:44;;;;;;;2.37;2.20;;;6.60;79.30;;;;;;5005941;28;20173;-74
2022/04/05 01:04:11;;;;;;;2.40;2.30;;;6.60;79.10;;;;;;5001029;28;20177;-74
2022/04/05 01:06:41;;;;;;;2.73;2.50;;;6.60;79.10;;;;;;5003852;28;20296;-75
2022/04/05 01:09:11;;;;;;;4.97;2.77;;;6.50;79.60;;;;;;5000327;28;20173;-75
2022/04/05 01:11:37;;;;;;;2.87;2.67;;;6.60;79.70;;;;;;5000969;28;20184;-73
2022/04/05 01:14:04;;;;;;;2.87;2.67;;;6.50;79.50;;;;;;4999330;28;20181;-74
2022/04/05 01:16:31;;;;;;;3.23;2.77;;;6.50;79.20;;;;;;4998561;28;20199;-73
2022/04/05 01:18:57;;;;;;;2.53;2.40;;;6.40;79.50;;;;;;4997722;28;20185;-73
2022/04/05 01:21:23;;;;;;;4.13;2.77;;;6.40;79.40;;;;;;4998415;28;20238;-74
2022/04/05 01:24:10;;;;;;;2.53;2.17;;;6.40;79.70;;;;;;4999469;28;20188;-74
2022/04/05 01:26:44;;;;;;;2.50;2.30;;;6.40;79.70;;;;;;5031693;28;20225;-76
2022/04/05 01:29:10;;;;;;;2.67;2.47;;;6.40;80.10;;;;;;5000004;28;20680;-74
2022/04/05 01:31:40;;;;;;;2.63;2.43;;;6.40;80.20;;;;;;5001177;28;20224;-74
2022/04/05 01:34:07;;;;;;;2.27;2.07;;;6.40;80.20;;;;;;5000921;28;20784;-75
2022/04/05 01:36:33;;;;;;;2.00;1.90;;;6.40;80.40;;;;;;5001066;28;20209;-74
2022/04/05 01:38:59;;;;;;;1.73;1.73;;;6.30;80.60;;;;;;4994914;28;20187;-73
2022/04/05 01:41:25;;;;;;;2.30;2.20;;;6.30;80.50;;;;;;4998048;28;20173;-73
2022/04/05 01:43:50;;;;;;;2.23;2.13;;;6.30;80.70;;;;;;4998810;28;20185;-74
2022/04/05 01:46:16;;;;;;;2.53;2.40;;;6.30;80.80;;;;;;5003645;28;20320;-75
2022/04/05 01:48:42;;;;;;;3.10;2.33;;;6.20;80.70;;;;;;5005272;28;20221;-75
2022/04/05 01:51:09;;;;;;;4.20;2.90;;;6.20;81.20;;;;;;5005400;28;20659;-74
2022/04/05 01:53:34;;;;;;;3.30;3.03;;;6.30;81.20;;;;;;5006048;28;20703;-75
2022/04/05 01:56:01;;;;;;;3.60;3.30;;;6.20;81.10;;;;;;5005005;28;20193;-74
2022/04/05 01:58:26;;;;;;;4.87;2.73;;;6.20;81.30;;;;;;5004477;28;20716;-75
2022/04/05 02:00:52;;;;;;;4.90;3.23;;;6.10;81.10;;;;;;5006606;28;20181;-74
2022/04/05 02:03:18;;;;;;;3.37;3.07;;;6.10;81.20;;;;;;5004538;28;20191;-74
2022/04/05 02:05:46;;;;;;;3.87;3.57;;;6.00;81.40;;;;;;5000153;28;20737;-75
2022/04/05 02:08:13;;;;;;;4.53;3.30;;;6.00;81.30;;;;;;5000977;28;20198;-75
2022/04/05 02:10:38;;;;;;;3.40;3.17;;;5.90;82.00;;;;;;5001209;28;20224;-75
2022/04/05 02:13:04;;;;;;;2.97;2.57;;;5.90;81.90;;;;;;5000527;28;20700;-75
2022/04/05 02:15:31;;;;;;;2.93;2.73;;;5.80;82.00;;;;;;4998630;28;20194;-74
2022/04/05 02:17:57;;;;;;;3.27;2.67;;;5.80;82.10;;;;;;4998922;28;20180;-75
2022/04/05 02:20:23;;;;;;;4.17;2.73;;;5.70;82.10;;;;;;4998758;28;20187;-74
2022/04/05 02:22:49;;;;;;;3.17;2.97;;;5.70;82.20;;;;;;5000367;28;21448;-74
2022/04/05 02:25:14;;;;;;;3.03;2.83;;;5.70;82.00;;;;;;5001945;28;20184;-75
2022/04/05 02:27:41;;;;;;;2.50;2.40;;;5.70;81.70;;;;;;4994906;28;20217;-74
2022/04/05 02:30:07;;;;;;;3.03;2.83;;;5.70;81.70;;;;;;4996034;28;20181;-74
2022/04/05 02:32:33;;;;;;;4.90;2.80;;;5.70;81.90;;;;;;4998241;28;20186;-74
2022/04/05 02:34:59;;;;;;;5.27;3.50;;;5.70;82.30;;;;;;4998437;28;20609;-74
2022/04/05 02:37:25;;;;;;;3.97;3.20;;;5.70;82.30;;;;;;4997161;28;20259;-75
2022/04/05 02:39:51;;;;;;;3.47;3.23;;;5.70;82.20;;;;;;5000541;28;20243;-75
2022/04/05 02:42:16;;;;;;;2.83;2.63;;;5.70;82.20;;;;;;5003201;28;20177;-75
2022/04/05 02:44:42;;;;;;;2.97;2.87;;;5.70;82.20;;;;;;5010464;28;20181;-75
2022/04/05 02:47:09;;;;;;;3.20;3.10;;;5.70;83.10;;;;;;5006232;28;20233;-74
2022/04/05 02:49:34;;;;;;;2.30;2.20;;;5.70;83.40;;;;;;5008338;28;20891;-74
2022/04/05 02:52:00;;;;;;;2.83;2.63;;;5.70;83.10;;;;;;5004996;28;20190;-74
2022/04/05 02:54:26;;;;;;;3.40;2.97;;;5.70;82.60;;;;;;5000502;28;20181;-75
2022/04/05 02:56:52;;;;;;;3.63;3.10;;;5.70;82.60;;;;;;5001142;28;20188;-73
2022/04/05 02:59:17;;;;;;;3.03;2.73;;;5.70;82.40;;;;;;4999276;28;20177;-74
2022/04/05 03:01:43;;;;;;;2.63;2.43;;;5.60;82.90;;;;;;5003392;28;20213;-74
2022/04/05 03:04:09;;;;;;;2.33;2.13;;;5.60;83.50;;;;;;5000676;28;20308;-75
2022/04/05 03:06:34;;;;;;;2.80;2.60;;;5.50;83.80;;;;;;5007584;28;20209;-74
2022/04/05 03:09:00;;;;;;;2.87;2.77;;;5.50;83.60;;;;;;5007102;28;20185;-74
2022/04/05 03:11:26;;;;;;;2.73;2.40;;;5.40;83.30;;;;;;5007740;28;20666;-74
2022/04/05 03:13:52;;;;;;;3.53;3.00;;;5.40;83.20;;;;;;5007458;28;20209;-74
2022/04/05 03:16:18;;;;;;;3.03;2.27;;;5.40;83.00;;;;;;5003806;28;20219;-74
2022/04/05 03:18:46;;;;;;;3.20;2.90;;;5.40;83.00;;;;;;5002607;28;20177;-74
2022/04/05 03:21:13;;;;;;;3.20;2.90;;;5.40;83.10;;;;;;5004824;28;20243;-75
2022/04/05 03:23:39;;;;;;;3.37;3.07;;;5.40;83.20;;;;;;5005185;28;20177;-74
2022/04/05 03:26:05;;;;;;;2.53;2.30;;;5.40;83.20;;;;;;5009509;28;20185;-74
2022/04/05 03:28:31;;;;;;;3.30;3.10;;;5.40;83.20;;;;;;5000467;28;20742;-74
2022/04/05 03:30:57;;;;;;;3.17;2.87;;;5.40;83.20;;;;;;5004846;28;20554;-74
2022/04/05 03:33:22;;;;;;;2.70;2.50;;;5.40;83.20;;;;;;5002671;28;20180;-74
2022/04/05 03:35:49;;;;;;;4.73;3.20;;;5.40;83.20;;;;;;5005740;28;20855;-75
2022/04/05 03:38:15;;;;;;;3.37;3.10;;;5.40;83.00;;;;;;5003751;28;20176;-75
2022/04/05 03:40:41;;;;;;;3.90;3.20;;;5.40;83.20;;;;;;5004243;28;20182;-75
2022/04/05 03:43:11;;;;;;;2.90;2.70;;;5.40;83.20;;;;;;5006591;28;20180;-74
2022/04/05 03:45:36;;;;;;;3.13;3.03;;;5.30;83.30;;;;;;5008594;28;20191;-74
2022/04/05 03:48:02;;;;;;;3.17;2.93;;;5.30;83.20;;;;;;5001223;28;20213;-74
2022/04/05 03:50:28;;;;;;;4.27;2.77;;;5.30;83.40;;;;;;4998496;28;20185;-75
2022/04/05 03:52:54;;;;;;;3.27;2.97;;;5.30;83.30;;;;;;5000671;28;20625;-73
2022/04/05 03:55:20;;;;;;;3.33;3.03;;;5.20;83.20;;;;;;5000407;28;20213;-74
2022/04/05 03:57:46;;;;;;;3.33;3.03;;;5.20;83.20;;;;;;4997799;28;20216;-73
2022/04/05 04:00:12;;;;;;;3.00;2.77;;;5.20;83.30;;;;;;5005316;28;20188;-74
2022/04/05 04:02:38;;;;;;;4.50;2.97;;;5.10;83.30;;;;;;5004938;28;20189;-74
2022/04/05 04:05:04;;;;;;;5.07;3.23;;;5.10;83.20;;;;;;5011864;28;20672;-75
2022/04/05 04:07:29;;;;;;;5.50;3.23;;;5.10;83.50;;;;;;5006599;28;20209;-74
2022/04/05 04:10:00;;;;;;;6.67;3.50;;;5.10;83.70;;;;;;5005746;28;20185;-74
2022/04/05 04:12:26;;;;;;;3.10;2.90;;;5.10;83.90;;;;;;5003814;28;20217;-74
2022/04/05 04:14:51;;;;;;;3.40;3.20;;;5.00;83.80;;;;;;5005543;28;20216;-74
2022/04/05 04:17:17;;;;;;;3.00;2.60;;;5.00;83.90;;;;;;5006247;28;20661;-75
2022/04/05 04:19:42;;;;;;;7.13;3.10;;;5.00;83.80;;;;;;5004056;28;20181;-76
2022/04/05 04:22:08;;;;;;;5.53;3.67;;;4.90;83.90;;;;;;4999377;28;20181;-74
2022/04/05 04:24:34;;;;;;;3.80;2.83;;;4.90;84.00;;;;;;4998888;28;20197;-74
2022/04/05 04:27:00;;;;;;;2.50;2.40;;;4.90;84.20;;;;;;4996524;28;20217;-74
2022/04/05 04:29:26;;;;;;;3.03;2.80;;;4.90;84.40;;;;;;4996704;28;20882;-74
2022/04/05 04:31:52;;;;;;;3.63;3.03;;;4.90;84.40;;;;;;5006952;28;20184;-76
2022/04/05 04:34:17;;;;;;;4.00;3.30;;;4.90;84.40;;;;;;5007212;28;20203;-76
2022/04/05 04:36:43;;;;;;;3.13;2.90;;;4.90;84.40;;;;;;5008413;28;20181;-75
2022/04/05 04:39:09;;;;;;;3.47;3.20;;;4.90;84.50;;;;;;5009115;28;20219;-76
2022/04/05 04:41:35;;;;;;;3.27;2.97;;;5.00;84.60;;;;;;4998943;28;20193;-76
2022/04/05 04:44:01;;;;;;;6.40;3.73;;;5.00;84.70;;;;;;5000890;28;20186;-74
2022/04/05 04:46:26;;;;;;;4.00;3.50;;;5.00;84.90;;;;;;5005455;28;20312;-74
2022/04/05 04:48:52;;;;;;;3.77;2.87;;;5.00;84.80;;;;;;5010284;28;20224;-76
2022/04/05 04:51:18;;;;;;;4.67;2.80;;;5.00;84.80;;;;;;5012858;28;20185;-74
2022/04/05 04:53:44;;;;;;;2.70;2.53;;;5.10;84.70;;;;;;5005563;28;20174;-75
2022/04/05 04:56:10;;;;;;;2.43;2.30;;;5.10;84.70;;;;;;5009672;28;20177;-76
2022/04/05 04:58:37;;;;;;;2.27;2.13;;;5.10;84.70;;;;;;5002674;28;20212;-75
2022/04/05 05:01:03;;;;;;;3.47;3.17;;;5.10;84.50;;;;;;4996316;28;20181;-73
2022/04/05 05:03:28;;;;;;;2.90;2.77;;;5.10;84.60;;;;;;4997640;28;20190;-74
2022/04/05 05:05:54;;;;;;;9.97;3.53;;;5.10;84.60;;;;;;4997590;28;20228;-72
2022/04/05 05:08:20;;;;;;;5.63;3.67;;;5.10;84.50;;;;;;4997014;28;20548;-72
2022/04/05 05:10:46;;;;;;;3.53;3.33;;;5.10;84.60;;;;;;4999226;28;20192;-74
2022/04/05 05:13:12;;;;;;;4.27;3.90;;;5.20;84.30;;;;;;4996847;28;20173;-73
2022/04/05 05:15:37;;;;;;;4.13;3.73;;;5.20;84.30;;;;;;4996478;28;20182;-73
2022/04/05 05:18:03;;;;;;;3.73;3.30;;;5.20;84.40;;;;;;4998203;28;20185;-73
2022/04/05 05:20:29;;;;;;;3.40;3.13;;;5.20;84.30;;;;;;5002673;28;20197;-75
2022/04/05 05:22:55;;;;;;;3.47;3.27;;;5.20;84.20;;;;;;4996639;28;20706;-75
2022/04/05 05:25:20;;;;;;;4.53;3.73;;;5.30;84.10;;;;;;4997958;28;20340;-71
2022/04/05 05:27:46;;;;;;;3.93;3.60;;;5.30;84.20;;;;;;5003622;28;20217;-75
2022/04/05 05:30:12;;;;;;;3.67;3.47;;;5.30;84.10;;;;;;4999765;28;20185;-73
2022/04/05 05:32:55;;;;;;;4.57;3.37;;;5.40;83.90;;;;;;5005265;28;20185;-73
2022/04/05 05:35:22;;;;;;;3.90;3.40;;;5.40;83.70;;;;;;4999354;28;20625;-73
2022/04/05 05:37:49;;;;;;;5.20;4.23;;;5.40;84.00;;;;;;5001671;28;20324;-75
2022/04/05 05:40:17;;;;;;;4.00;3.67;;;5.40;83.90;;;;;;5004066;28;20197;-74
2022/04/05 05:42:55;;;;;;;7.13;3.40;;;5.50;83.80;;;;;;5001455;28;20600;-76
2022/04/05 05:45:21;;;;;;;4.93;3.53;;;5.50;83.60;;;;;;4992939;28;20193;-75
2022/04/05 05:47:48;;;;;;;4.97;4.57;;;5.50;83.90;;;;;;4999053;28;20217;-75
2022/04/05 05:50:14;;;;;;;8.37;4.00;;;5.50;84.60;;;;;;4996177;28;20217;-76
2022/04/05 05:52:41;;;;;;;6.80;5.13;;;5.50;84.40;;;;;;4995460;28;20212;-76
2022/04/05 05:55:08;;;;;;;15.10;5.57;;;5.50;85.00;;;;;;4999276;28;20185;-76
2022/04/05 05:57:35;;;;;;;6.73;4.77;;;5.50;84.80;;;;;;4994473;28;20208;-74
2022/04/05 06:00:03;;;;;;;7.70;5.03;;;5.50;84.60;;;;;;5000119;28;20228;-78
2022/04/05 06:02:28;;;;;;;6.20;5.23;;;5.60;84.80;;;;;;4997956;28;20243;-78
2022/04/05 06:04:54;;;;;;;7.03;4.73;;;5.50;84.70;;;;;;4994722;28;20197;-79
2022/04/05 06:07:19;;;;;;;5.27;4.77;;;5.60;84.40;;;;;;4997221;28;20264;-78
2022/04/05 06:09:45;;;;;;;7.83;4.80;;;5.60;83.90;;;;;;4993788;28;20181;-78
2022/04/05 06:12:11;;;;;;;7.27;5.00;;;5.70;83.60;;;;;;4994763;28;20188;-79
2022/04/05 06:14:38;;;;;;;5.20;4.60;;;5.70;83.50;;;;;;4992726;28;20189;-79
2022/04/05 06:17:04;;;;;;;5.43;4.50;;;5.70;83.20;;;;;;4993160;28;20186;-78
2022/04/05 06:19:30;;;;;;;7.13;3.93;;;5.70;83.10;;;;;;4995336;28;20181;-79
2022/04/05 06:21:56;;;;;;;4.90;4.20;;;5.70;83.30;;;;;;4996400;28;20583;-78
2022/04/05 06:24:24;;;;;;;5.43;4.13;;;5.70;83.70;;;;;;4992470;28;20182;-79
2022/04/05 06:26:53;;;;;;;4.53;4.13;;;5.80;83.50;;;;;;4993442;28;20264;-80
2022/04/05 06:29:18;;;;;;;4.00;3.60;;;5.90;83.40;;;;;;4994277;28;20259;-80
2022/04/05 06:31:44;;;;;;;4.40;3.77;;;5.90;83.40;;;;;;5000223;28;20944;-79
2022/04/05 06:34:10;;;;;;;6.07;3.87;;;6.00;83.80;;;;;;4992059;28;20189;-79
2022/04/05 06:36:36;;;;;;;4.80;4.40;;;6.10;83.60;;;;;;4994980;28;21159;-80
2022/04/05 06:39:02;;;;;;;3.70;3.40;;;6.20;82.90;;;;;;4993711;28;20265;-79
2022/04/05 06:41:27;;;;;;;4.13;3.70;;;6.20;82.70;;;;;;4997102;28;20181;-79
2022/04/05 06:43:53;;;;;;;4.40;4.10;;;6.30;82.70;;;;;;4996769;28;20181;-80
2022/04/05 06:46:24;;;;;;;4.07;3.77;;;6.40;82.30;;;;;;4989609;28;20221;-79
2022/04/05 06:48:50;;;;;;;4.37;3.90;;;6.50;81.80;;;;;;4994474;28;20203;-77
2022/04/05 06:51:16;;;;;;;3.97;3.67;;;6.50;81.60;;;;;;4992893;28;20727;-77
2022/04/05 06:53:42;;;;;;;3.43;3.23;;;6.60;81.50;;;;;;4998320;28;20668;-77
2022/04/05 06:56:09;;;;;;;4.03;3.77;;;6.60;81.30;;;;;;4993679;28;20318;-78
2022/04/05 06:58:35;;;;;;;4.43;4.03;;;6.70;81.60;;;;;;4993549;28;20181;-77
2022/04/05 07:01:01;;;;;;;4.00;3.67;;;6.70;81.60;;;;;;4993648;28;20189;-77
2022/04/05 07:03:26;;;;;;;3.33;3.10;;;6.80;81.80;;;;;;4999089;28;20217;-76
2022/04/05 07:05:52;;;;;;;4.77;4.03;;;6.90;81.20;;;;;;4998581;28;20991;-78
2022/04/05 07:08:18;;;;;;;5.27;4.37;;;7.00;81.20;;;;;;4995261;28;20683;-78
2022/04/05 07:10:44;;;;;;;4.53;3.33;;;7.00;81.00;;;;;;4995136;28;20264;-78
2022/04/05 07:13:10;;;;;;;11.97;3.90;;;7.10;81.00;;;;;;4995244;28;20185;-78
2022/04/05 07:15:35;;;;;;;3.80;3.43;;;7.20;81.30;;;;;;4996159;28;20380;-78
2022/04/05 07:18:01;;;;;;;6.53;4.60;;;7.30;80.90;;;;;;4994015;28;21010;-78
2022/04/05 07:20:27;;;;;;;5.47;4.70;;;7.30;80.50;;;;;;4996595;28;20271;-78
2022/04/05 07:22:52;;;;;;;5.77;4.10;;;7.40;80.70;;;;;;4995879;28;20264;-78
2022/04/05 07:25:20;;;;;;;7.07;4.27;;;7.40;80.80;;;;;;4993756;28;20181;-77
2022/04/05 07:27:49;;;;;;;4.37;4.03;;;7.50;80.70;;;;;;4996795;28;20213;-78
2022/04/05 07:30:16;;;;;;;4.40;4.03;;;7.60;80.60;;;;;;4997757;28;20256;-77
2022/04/05 07:32:43;;;;;;;5.57;4.37;;;7.70;80.30;;;;;;4999783;28;20758;-78
2022/04/05 07:35:10;;;;;;;4.90;3.77;;;7.80;80.10;;;;;;4999670;28;20216;-79
2022/04/05 07:37:37;;;;;;;5.40;4.10;;;7.80;79.70;;;;;;4995384;28;20205;-79
2022/04/05 07:40:05;;;;;;;4.43;4.03;;;7.90;79.80;;;;;;4997537;28;20183;-79
2022/04/05 07:42:32;;;;;;;3.57;3.37;;;8.00;80.00;;;;;;4994681;28;20200;-79
2022/04/05 07:44:57;;;;;;;3.77;3.57;;;8.10;79.00;;;;;;4999926;28;20185;-79
2022/04/05 07:47:23;;;;;;;6.80;3.57;;;8.10;79.40;;;;;;4992501;28;20977;-79
2022/04/05 07:49:49;;;;;;;4.17;3.73;;;8.20;79.40;;;;;;4998926;28;20259;-78
2022/04/05 07:52:15;;;;;;;4.80;4.10;;;8.30;79.00;;;;;;4996659;28;20261;-79
2022/04/05 07:54:41;;;;;;;4.20;3.80;;;8.50;78.90;;;;;;4999831;28;20180;-78
2022/04/05 07:57:09;;;;;;;4.23;3.70;;;8.60;78.20;;;;;;4996597;28;20241;-78
2022/04/05 07:59:36;;;;;;;5.77;3.63;;;8.70;77.50;;;;;;4999697;28;20578;-78
2022/04/05 08:02:03;;;;;;;3.17;2.70;;;8.80;77.60;;;;;;4998238;28;20193;-77
2022/04/05 08:04:28;;;;;;;4.47;3.27;;;8.90;77.60;;;;;;4995907;28;20244;-78
2022/04/05 08:06:54;;;;;;;3.97;3.67;;;9.00;77.70;;;;;;4997156;28;20276;-78
2022/04/05 08:09:20;;;;;;;3.87;3.53;;;9.10;75.70;;;;;;4997074;28;20200;-78
2022/04/05 08:11:47;;;;;;;4.93;3.90;;;9.20;76.20;;;;;;4996945;28;20291;-78
2022/04/05 08:14:12;;;;;;;3.97;3.40;;;9.30;76.20;;;;;;4997092;28;20185;-78
2022/04/05 08:16:38;;;;;;;4.80;4.40;;;9.50;76.50;;;;;;4999820;28;20216;-79
2022/04/05 08:19:05;;;;;;;5.60;5.00;;;9.60;76.00;;;;;;5003216;28;20196;-78
2022/04/05 08:21:31;;;;;;;5.53;5.07;;;9.70;76.10;;;;;;5003807;28;20185;-78
2022/04/05 08:23:57;;;;;;;7.57;4.93;;;9.90;74.80;;;;;;4999700;28;20184;-78
2022/04/05 08:26:23;;;;;;;9.67;5.47;;;10.00;75.10;;;;;;5000950;28;20601;-78
2022/04/05 08:28:49;;;;;;;8.70;5.40;;;10.10;75.70;;;;;;5000697;28;20192;-80
2022/04/05 08:31:20;;;;;;;5.63;5.00;;;10.30;74.20;;;;;;4999460;28;20276;-79
2022/04/05 08:33:45;;;;;;;5.00;4.60;;;10.50;74.70;;;;;;4997051;28;20188;-79
2022/04/05 08:36:11;;;;;;;4.27;4.00;;;10.70;74.20;;;;;;4998404;28;20193;-79
2022/04/05 08:38:36;;;;;;;5.27;4.70;;;10.90;74.10;;;;;;4993747;28;20544;-78
2022/04/05 08:41:05;;;;;;;6.10;5.50;;;11.10;73.50;;;;;;4996631;28;20186;-78
2022/04/05 08:43:31;;;;;;;5.20;4.07;;;11.40;72.90;;;;;;4994093;28;20196;-79
2022/04/05 08:46:00;;;;;;;9.88;5.50;;;11.60;71.40;;;;;;4995090;28;20181;-80
2022/04/05 08:48:27;;;;;;;5.43;4.90;;;12.00;70.80;;;;;;4994170;28;20336;-78
2022/04/05 08:50:55;;;;;;;5.57;4.75;;;12.30;69.50;;;;;;4997767;28;20185;-79
2022/04/05 08:53:21;;;;;;;5.72;5.00;;;12.60;69.00;;;;;;4998361;28;20222;-79
2022/04/05 08:55:48;;;;;;;5.30;4.80;;;13.10;66.90;;;;;;4994912;28;20180;-79
2022/04/05 08:58:14;;;;;;;6.97;4.55;;;13.30;65.50;;;;;;4991465;28;20189;-78
2022/04/05 09:00:41;;;;;;;5.50;4.38;;;13.80;64.90;;;;;;4995436;28;20182;-79
2022/04/05 09:03:07;;;;;;;6.93;4.80;;;14.50;63.90;;;;;;4990734;28;20180;-78
2022/04/05 09:05:38;;;;;;;8.57;4.45;;;15.10;63.80;;;;;;4994958;28;20249;-78
2022/04/05 09:08:29;;;;;;;4.55;3.92;;;16.00;63.20;;;;;;4997446;28;20217;-78
2022/04/05 09:11:11;;;;;;;3.95;3.55;;;17.00;59.10;;;;;;4997137;28;20197;-78
2022/04/05 09:13:37;;;;;;;3.70;3.50;;;17.70;58.00;;;;;;4993900;28;20181;-78
2022/04/05 09:16:08;;;;;;;3.55;3.35;;;18.40;57.90;;;;;;4995926;28;20185;-78
2022/04/05 09:18:38;;;;;;;4.22;3.58;;;19.00;55.40;;;;;;4993667;28;20691;-78
2022/04/05 09:21:09;;;;;;;2.10;2.00;;;19.60;55.10;;;;;;4995442;28;20223;-79
2022/04/05 09:23:41;;;;;;;3.20;3.00;;;20.10;52.30;;;;;;4995782;28;20185;-79
2022/04/05 09:26:09;;;;;;;3.17;2.92;;;20.40;52.40;;;;;;4992387;28;20634;-79
2022/04/05 09:28:48;;;;;;;3.67;3.28;;;20.70;50.60;;;;;;4995841;28;20182;-79
2022/04/05 09:31:22;;;;;;;3.00;2.90;;;21.10;52.70;;;;;;4993152;28;20188;-79
2022/04/05 09:34:19;;;;;;;3.20;3.00;;;21.60;52.20;;;;;;4992122;28;20193;-79
2022/04/05 09:36:49;;;;;;;3.90;2.50;;;22.20;50.20;;;;;;4991022;28;20197;-80
2022/04/05 09:39:21;;;;;;;3.15;2.95;;;22.70;49.20;;;;;;4994099;28;20197;-79
2022/04/05 09:41:59;;;;;;;3.42;3.22;;;23.20;50.10;;;;;;4989688;28;20181;-78
2022/04/05 09:44:33;;;;;;;3.17;2.78;;;23.70;49.20;;;;;;4993592;28;20205;-79
2022/04/05 09:47:11;;;;;;;4.85;3.50;;;24.00;47.20;;;;;;4994376;28;20598;-79
2022/04/05 09:49:40;;;;;;;3.38;3.08;;;24.10;49.80;;;;;;4992710;28;20673;-79
2022/04/05 09:52:26;;;;;;;3.38;3.13;;;24.30;48.00;;;;;;4994765;28;20292;-79
2022/04/05 09:54:52;;;;;;;3.30;3.10;;;24.40;45.90;;;;;;4993318;28;20189;-80
2022/04/05 09:57:32;;;;;;;6.55;3.78;;;24.50;45.80;;;;;;4993662;28;20191;-80
2022/04/05 10:00:14;;;;;;;4.10;3.85;;;24.40;45.90;;;;;;4998657;28;20189;-79
2022/04/05 10:03:10;;;;;;;3.50;3.30;;;24.40;44.10;;;;;;4994409;28;20269;-79
2022/04/05 10:05:36;;;;;;;3.28;3.13;;;24.50;47.30;;;;;;4994051;28;20274;-80
2022/04/05 10:08:04;;;;;;;2.95;2.85;;;25.10;46.60;;;;;;4993730;28;20232;-78
2022/04/05 10:10:33;;;;;;;3.95;3.50;;;25.70;44.80;;;;;;4993022;28;20177;-78
2022/04/05 10:12:59;;;;;;;4.10;3.65;;;26.10;46.20;;;;;;4998294;28;20679;-78
2022/04/05 10:15:26;;;;;;;3.10;2.90;;;26.40;44.50;;;;;;4994296;28;20259;-77
2022/04/05 10:17:53;;;;;;;3.92;3.60;;;26.60;43.30;;;;;;4992865;28;20187;-78
2022/04/05 10:20:20;;;;;;;3.30;3.10;;;26.50;47.10;;;;;;4995771;28;20192;-77
2022/04/05 10:22:56;;;;;;;3.30;3.00;;;26.80;46.20;;;;;;4996131;28;20239;-77
2022/04/05 10:25:22;;;;;;;3.72;3.50;;;27.30;44.80;;;;;;4999237;28;20195;-77
2022/04/05 10:27:48;;;;;;;3.97;3.65;;;27.70;42.90;;;;;;4999597;28;21006;-78
2022/04/05 10:30:17;;;;;;;3.75;3.10;;;27.90;45.30;;;;;;4993680;28;20209;-79
2022/04/05 10:33:00;;;;;;;3.60;3.40;;;28.30;45.40;;;;;;4996255;28;20629;-78
2022/04/05 10:35:29;;;;;;;3.58;3.13;;;28.70;45.00;;;;;;4996438;28;20215;-78
2022/04/05 10:38:15;;;;;;;3.72;3.42;;;29.00;42.20;;;;;;4999695;28;20189;-77
2022/04/05 10:40:41;;;;;;;4.47;3.53;;;29.20;44.70;;;;;;4998551;28;20181;-78
2022/04/05 10:43:18;;;;;;;3.55;3.38;;;29.40;40.80;;;;;;4996557;28;20181;-78
2022/04/05 10:45:45;;;;;;;3.17;3.05;;;29.40;44.80;;;;;;4998506;28;20188;-78
2022/04/05 10:48:16;;;;;;;2.78;2.63;;;29.50;40.10;;;;;;4995585;28;20214;-78
2022/04/05 10:51:06;;;;;;;3.10;2.90;;;29.70;44.70;;;;;;4994576;28;20189;-78
2022/04/05 10:53:32;;;;;;;2.75;2.58;;;29.90;41.20;;;;;;4990079;28;20196;-78
2022/04/05 10:56:10;;;;;;;3.33;2.75;;;30.20;44.20;;;;;;4995744;28;20664;-78
2022/04/05 10:58:37;;;;;;;3.15;3.05;;;30.40;44.60;;;;;;4998280;28;20185;-78
2022/04/05 11:01:35;;;;;;;3.05;2.95;;;30.60;42.60;;;;;;4995070;28;20209;-78
2022/04/05 11:04:16;;;;;;;7.25;3.30;;;30.90;39.40;;;;;;4999318;28;20281;-77
2022/04/05 11:07:05;;;;;;;3.00;2.80;;;31.10;40.90;;;;;;4997289;28;20213;-77
2022/04/05 11:09:41;;;;;;;2.85;2.72;;;31.20;38.30;;;;;;4996244;28;20213;-77
2022/04/05 11:12:20;;;;;;;3.20;3.00;;;31.00;40.90;;;;;;4999846;28;20187;-78
2022/04/05 11:14:50;;;;;;;4.20;3.08;;;31.10;42.90;;;;;;5001583;28;20195;-77
2022/04/05 11:17:17;;;;;;;3.30;3.13;;;31.20;40.60;;;;;;4998052;28;20181;-77
2022/04/05 11:19:45;;;;;;;2.97;2.75;;;31.30;39.50;;;;;;4997626;28;20185;-77
2022/04/05 11:22:20;;;;;;;3.20;3.03;;;31.30;38.00;;;;;;4998611;28;20192;-77
2022/04/05 11:25:11;;;;;;;4.22;3.65;;;30.70;38.10;;;;;;4998134;28;20267;-78
2022/04/05 11:27:49;;;;;;;2.70;2.60;;;30.30;39.60;;;;;;5001169;28;20672;-77
2022/04/05 11:30:23;;;;;;;4.28;2.65;;;30.00;40.20;;;;;;4996313;28;20177;-77
2022/04/05 11:33:15;;;;;;;2.88;2.67;;;29.90;39.30;;;;;;5002127;28;20254;-77
2022/04/05 11:35:45;;;;;;;2.30;2.30;;;29.90;40.20;;;;;;4965907;28;20716;-78
2022/04/05 11:38:19;;;;;;;2.75;2.65;;;29.80;42.30;;;;;;4965862;28;20241;-77
2022/04/05 11:40:50;;;;;;;3.03;2.85;;;29.70;39.20;;;;;;4965262;28;20232;-78
2022/04/05 11:43:21;;;;;;;2.80;2.60;;;29.70;42.30;;;;;;4965406;28;20190;-78
2022/04/05 11:45:48;;;;;;;3.08;2.97;;;29.80;41.80;;;;;;4949170;28;20614;-78
2022/04/05 11:48:18;;;;;;;2.45;2.35;;;30.00;40.20;;;;;;4950012;28;20213;-77
2022/04/05 11:50:43;;;;;;;2.63;2.42;;;30.30;38.90;;;;;;4966528;28;20190;-77
2022/04/05 11:53:30;;;;;;;3.15;2.92;;;30.60;41.10;;;;;;4965918;28;20273;-78
2022/04/05 11:56:22;;;;;;;2.35;2.22;;;30.90;39.20;;;;;;4965672;28;20197;-78
2022/04/05 11:58:54;;;;;;;3.20;1.70;;;30.80;36.90;;;;;;4965385;28;20250;-77
2022/04/05 12:01:28;;;;;;;2.95;2.38;;;30.80;36.90;;;;;;4966298;28;20191;-78
2022/04/05 12:03:56;;;;;;;1.52;1.48;;;30.50;37.10;;;;;;4950392;28;20190;-78
2022/04/05 12:06:32;;;;;;;3.83;2.28;;;30.00;39.70;;;;;;4963727;28;20207;-75
2022/04/05 12:09:04;;;;;;;2.30;2.00;;;29.80;40.40;;;;;;4948022;28;20186;-79
2022/04/05 12:11:35;;;;;;;1.48;1.13;;;29.70;41.00;;;;;;4964343;28;20200;-75
2022/04/05 12:14:05;;;;;;;1.08;1.08;;;29.90;42.50;;;;;;4997013;28;20641;-77
2022/04/05 12:17:00;;;;;;;1.45;1.45;;;30.10;41.60;;;;;;4998377;28;20193;-75
2022/04/05 12:19:34;;;;;;;1.60;1.20;;;30.60;40.60;;;;;;5006774;28;20264;-77
2022/04/05 12:22:05;;;;;;;2.95;1.38;;;31.00;39.60;;;;;;4999239;28;20205;-76
2022/04/05 12:24:33;;;;;;;1.25;1.25;;;31.30;38.50;;;;;;5002129;28;20185;-76
2022/04/05 12:27:00;;;;;;;0.98;0.98;;;31.80;37.30;;;;;;5000446;28;20667;-76
2022/04/05 12:29:28;;;;;;;1.38;0.80;;;32.10;38.00;;;;;;5007504;28;20232;-77
2022/04/05 12:31:54;;;;;;;2.38;0.80;;;32.00;36.20;;;;;;4999539;28;20197;-74
2022/04/05 12:34:21;;;;;;;0.70;0.70;;;31.70;34.90;;;;;;4996589;28;20331;-75
2022/04/05 12:36:52;;;;;;;0.60;0.60;;;30.80;35.50;;;;;;5002459;28;20579;-76
2022/04/05 12:39:32;;;;;;;0.63;0.63;;;30.10;38.30;;;;;;4996262;28;20193;-76
2022/04/05 12:42:06;;;;;;;0.75;0.52;;;29.80;36.90;;;;;;4995906;28;20723;-76
2022/04/05 12:44:37;;;;;;;1.27;0.70;;;29.90;37.10;;;;;;4996621;28;20267;-77
2022/04/05 12:47:08;;;;;;;0.70;0.70;;;29.40;35.90;;;;;;4997220;28;20646;-76
2022/04/05 12:49:38;;;;;;;0.52;0.52;;;29.20;36.70;;;;;;4998964;28;20193;-77
2022/04/05 12:52:14;;;;;;;0.82;0.60;;;28.70;39.00;;;;;;4998000;28;20186;-76
2022/04/05 12:54:59;;;;;;;0.57;0.57;;;28.60;38.40;;;;;;4997240;28;20188;-77
2022/04/05 12:57:24;;;;;;;4.70;0.60;;;28.50;38.80;;;;;;5000093;28;20362;-77
2022/04/05 12:59:52;;;;;;;0.70;0.70;;;28.80;37.20;;;;;;4998063;28;20268;-78